createdAt,value
2023-05-07T00:01:29.387Z,90.90
2023-05-07T00:03:57.676Z,91.00
2023-05-07T00:06:27.654Z,91.00
2023-05-07T00:08:58.128Z,91.00
2023-05-07T00:11:26.800Z,91.10
2023-05-07T00:13:55.104Z,91.00
2023-05-07T00:16:23.469Z,90.90
2023-05-07T00:18:51.948Z,90.90
2023-05-07T00:21:20.747Z,90.80
2023-05-07T00:23:49.377Z,90.80
2023-05-07T00:26:19.347Z,91.10
2023-05-07T00:28:47.629Z,90.80
2023-05-07T00:31:15.950Z,90.80
2023-05-07T00:33:44.723Z,90.80
2023-05-07T00:36:12.898Z,90.80
2023-05-07T00:38:41.533Z,90.80
2023-05-07T00:41:09.762Z,90.80
2023-05-07T00:43:39.756Z,90.80
2023-05-07T00:46:08.466Z,90.80
2023-05-07T00:48:36.827Z,90.70
2023-05-07T00:51:05.566Z,90.70
2023-05-07T00:53:33.824Z,90.60
2023-05-07T00:56:03.330Z,90.60
2023-05-07T00:58:32.363Z,90.50
2023-05-07T01:01:02.366Z,90.50
2023-05-07T01:03:30.844Z,90.40
2023-05-07T01:06:00.756Z,90.40
2023-05-07T01:08:31.561Z,90.40
2023-05-07T01:11:00.421Z,90.30
2023-05-07T01:13:29.973Z,90.30
2023-05-07T01:15:58.310Z,90.30
2023-05-07T01:18:28.310Z,90.20
2023-05-07T01:20:58.972Z,90.10
2023-05-07T01:23:30.129Z,90.00
2023-05-07T01:25:58.946Z,89.80
2023-05-07T01:28:27.883Z,89.60
2023-05-07T01:31:02.562Z,89.60
2023-05-07T01:33:34.120Z,89.40
2023-05-07T01:36:04.626Z,89.20
2023-05-07T01:38:35.078Z,89.20
2023-05-07T01:41:03.847Z,89.30
2023-05-07T01:43:33.047Z,89.40
2023-05-07T01:46:01.863Z,89.40
2023-05-07T01:48:31.032Z,89.50
2023-05-07T01:51:00.034Z,89.50
2023-05-07T01:53:29.643Z,89.50
2023-05-07T01:55:59.263Z,89.60
2023-05-07T01:58:27.502Z,89.70
2023-05-07T02:00:55.783Z,89.70
2023-05-07T02:03:24.259Z,89.60
2023-05-07T02:05:52.868Z,89.70
2023-05-07T02:08:21.096Z,89.90
2023-05-07T02:10:51.126Z,89.90
2023-05-07T02:13:20.930Z,89.90
2023-05-07T02:15:51.715Z,89.90
2023-05-07T02:18:20.067Z,89.80
2023-05-07T02:20:48.601Z,89.60
2023-05-07T02:23:17.435Z,89.60
2023-05-07T02:25:46.552Z,89.60
2023-05-07T02:28:15.227Z,89.60
2023-05-07T02:30:44.886Z,89.60
2023-05-07T02:33:14.920Z,89.50
2023-05-07T02:35:43.335Z,89.40
2023-05-07T02:38:12.247Z,89.30
2023-05-07T02:40:41.093Z,89.10
2023-05-07T02:43:10.647Z,89.10
2023-05-07T02:45:39.420Z,89.20
2023-05-07T02:48:09.918Z,89.40
2023-05-07T02:50:38.203Z,89.40
2023-05-07T02:53:06.901Z,89.40
2023-05-07T02:55:35.385Z,89.30
2023-05-07T02:58:04.768Z,89.30
2023-05-07T03:00:33.071Z,89.40
2023-05-07T03:03:01.374Z,89.50
2023-05-07T03:05:31.258Z,89.50
2023-05-07T03:07:59.519Z,89.50
2023-05-07T03:10:27.924Z,89.50
2023-05-07T03:12:56.478Z,89.50
2023-05-07T03:15:25.081Z,89.20
2023-05-07T03:17:53.555Z,89.20
2023-05-07T03:20:22.188Z,89.30
2023-05-07T03:22:52.002Z,89.30
2023-05-07T03:25:20.275Z,89.30
2023-05-07T03:27:48.474Z,89.30
2023-05-07T03:30:16.974Z,89.20
2023-05-07T03:32:45.392Z,89.30
2023-05-07T03:35:13.698Z,89.30
2023-05-07T03:37:42.437Z,89.90
2023-05-07T03:40:13.685Z,89.20
2023-05-07T03:42:43.362Z,89.20
2023-05-07T03:45:12.164Z,89.20
2023-05-07T03:47:40.339Z,89.30
2023-05-07T03:50:09.513Z,89.40
2023-05-07T03:52:38.214Z,89.40
2023-05-07T03:55:07.248Z,89.30
2023-05-07T03:57:36.822Z,89.40
2023-05-07T04:00:06.634Z,89.40
2023-05-07T04:02:35.504Z,89.30
2023-05-07T04:05:03.833Z,89.30
2023-05-07T04:07:32.116Z,89.30
2023-05-07T04:10:00.339Z,89.40
2023-05-07T04:12:28.526Z,89.40
2023-05-07T04:14:58.323Z,89.50
2023-05-07T04:17:26.731Z,89.60
2023-05-07T04:19:55.208Z,90.10
2023-05-07T04:22:23.437Z,89.70
2023-05-07T04:24:52.360Z,89.90
2023-05-07T04:27:21.354Z,90.00
2023-05-07T04:29:49.663Z,90.00
2023-05-07T04:32:19.480Z,90.00
2023-05-07T04:34:50.608Z,89.90
2023-05-07T04:37:19.058Z,90.20
2023-05-07T04:39:47.630Z,90.00
2023-05-07T04:42:17.937Z,90.10
2023-05-07T04:44:47.159Z,90.10
2023-05-07T04:47:15.385Z,90.10
2023-05-07T04:49:45.074Z,90.40
2023-05-07T04:52:13.233Z,90.10
2023-05-07T04:54:41.426Z,90.00
2023-05-07T04:57:09.716Z,90.00
2023-05-07T04:59:38.197Z,90.10
2023-05-07T05:02:06.431Z,90.00
2023-05-07T05:04:34.938Z,90.00
2023-05-07T05:07:05.535Z,90.00
2023-05-07T05:09:33.956Z,89.80
2023-05-07T05:12:02.511Z,89.80
2023-05-07T05:14:32.091Z,89.60
2023-05-07T05:17:00.654Z,90.00
2023-05-07T05:19:29.152Z,89.40
2023-05-07T05:21:57.363Z,89.10
2023-05-07T05:24:27.062Z,88.90
2023-05-07T05:26:55.764Z,89.30
2023-05-07T05:29:24.374Z,88.50
2023-05-07T05:31:52.674Z,88.40
2023-05-07T05:34:22.961Z,88.20
2023-05-07T05:36:51.274Z,88.00
2023-05-07T05:39:19.717Z,87.80
2023-05-07T05:41:49.606Z,87.60
2023-05-07T05:44:17.881Z,87.40
2023-05-07T05:46:46.454Z,87.20
2023-05-07T05:49:14.695Z,87.10
2023-05-07T05:51:42.912Z,86.90
2023-05-07T05:54:11.140Z,86.80
2023-05-07T05:56:39.620Z,86.80
2023-05-07T05:59:09.425Z,86.60
2023-05-07T06:01:37.925Z,86.40
2023-05-07T06:04:06.838Z,86.00
2023-05-07T06:06:35.114Z,85.80
2023-05-07T06:09:03.384Z,85.60
2023-05-07T06:11:31.671Z,85.50
2023-05-07T06:13:59.959Z,85.40
2023-05-07T06:16:29.870Z,85.20
2023-05-07T06:18:58.512Z,85.00
2023-05-07T06:21:26.795Z,85.40
2023-05-07T06:23:55.920Z,84.40
2023-05-07T06:26:24.192Z,84.10
2023-05-07T06:28:52.704Z,83.90
2023-05-07T06:31:22.536Z,83.90
2023-05-07T06:33:52.674Z,84.10
2023-05-07T06:36:20.933Z,83.80
2023-05-07T06:38:49.074Z,83.60
2023-05-07T06:41:17.453Z,83.30
2023-05-07T06:43:45.710Z,83.10
2023-05-07T06:46:14.084Z,82.40
2023-05-07T06:48:47.108Z,82.00
2023-05-07T06:51:16.975Z,81.60
2023-05-07T06:53:45.436Z,81.60
2023-05-07T06:56:13.616Z,81.40
2023-05-07T06:58:42.014Z,80.90
2023-05-07T07:01:10.809Z,80.70
2023-05-07T07:03:39.149Z,80.30
2023-05-07T07:06:08.023Z,79.80
2023-05-07T07:08:39.834Z,79.50
2023-05-07T07:11:08.336Z,79.20
2023-05-07T07:13:36.643Z,79.10
2023-05-07T07:16:05.292Z,79.00
2023-05-07T07:18:33.576Z,78.50
2023-05-07T07:21:01.771Z,78.20
2023-05-07T07:23:30.425Z,77.90
2023-05-07T07:26:00.611Z,77.80
2023-05-07T07:28:29.075Z,77.70
2023-05-07T07:30:57.780Z,77.10
2023-05-07T07:33:26.201Z,76.70
2023-05-07T07:35:54.712Z,76.60
2023-05-07T07:38:22.926Z,76.50
2023-05-07T07:40:51.471Z,76.30
2023-05-07T07:43:21.260Z,76.20
2023-05-07T07:45:49.562Z,75.90
2023-05-07T07:48:17.894Z,75.70
2023-05-07T07:50:46.733Z,75.50
2023-05-07T07:53:22.677Z,75.60
2023-05-07T07:55:51.013Z,75.60
2023-05-07T07:58:20.704Z,75.40
2023-05-07T08:00:49.163Z,75.50
2023-05-07T08:03:17.855Z,75.50
2023-05-07T08:05:46.209Z,75.30
2023-05-07T08:08:14.485Z,75.00
2023-05-07T08:10:42.815Z,74.30
2023-05-07T08:13:11.194Z,73.90
2023-05-07T08:15:40.968Z,73.60
2023-05-07T08:18:09.279Z,73.30
2023-05-07T08:20:40.405Z,73.20
2023-05-07T08:23:08.879Z,73.00
2023-05-07T08:25:38.346Z,72.90
2023-05-07T08:28:09.041Z,72.80
2023-05-07T08:30:38.203Z,72.50
2023-05-07T08:33:07.973Z,72.40
2023-05-07T08:35:36.380Z,72.40
2023-05-07T08:38:05.021Z,72.40
2023-05-07T08:40:39.230Z,72.00
2023-05-07T08:43:08.411Z,71.60
2023-05-07T08:45:37.256Z,71.40
2023-05-07T08:48:11.031Z,70.70
2023-05-07T08:50:39.905Z,70.00
2023-05-07T08:53:08.460Z,69.80
2023-05-07T08:55:36.796Z,69.80
2023-05-07T08:58:05.647Z,69.40
2023-05-07T09:00:34.796Z,69.00
2023-05-07T09:03:03.883Z,68.90
2023-05-07T09:05:33.460Z,69.10
2023-05-07T09:08:01.905Z,69.10
2023-05-07T09:10:32.186Z,69.20
2023-05-07T09:13:00.732Z,68.80
2023-05-07T09:15:50.462Z,68.10
2023-05-07T09:18:18.953Z,67.50
2023-05-07T09:20:48.657Z,67.80
2023-05-07T09:23:16.892Z,67.50
2023-05-07T09:25:45.260Z,67.20
2023-05-07T09:28:13.848Z,66.60
2023-05-07T09:30:42.164Z,66.20
2023-05-07T09:33:10.539Z,65.70
2023-05-07T09:35:40.160Z,65.40
2023-05-07T09:38:10.401Z,65.20
2023-05-07T09:40:38.692Z,65.30
2023-05-07T09:43:15.097Z,65.60
2023-05-07T09:45:43.582Z,64.80
2023-05-07T09:48:12.912Z,64.30
2023-05-07T09:50:50.360Z,64.00
2023-05-07T09:53:20.476Z,64.00
2023-05-07T09:55:49.266Z,63.90
2023-05-07T09:58:18.407Z,64.00
2023-05-07T10:00:47.445Z,63.80
2023-05-07T10:03:17.960Z,63.30
2023-05-07T10:05:48.367Z,62.80
2023-05-07T10:08:18.161Z,62.30
2023-05-07T10:10:48.210Z,61.70
2023-05-07T10:13:16.624Z,61.10
2023-05-07T10:15:47.311Z,60.80
2023-05-07T10:18:17.797Z,60.70
2023-05-07T10:20:48.963Z,60.70
2023-05-07T10:23:25.383Z,60.40
2023-05-07T10:26:00.764Z,60.10
2023-05-07T10:28:31.039Z,59.90
2023-05-07T10:31:09.709Z,59.70
2023-05-07T10:33:39.547Z,59.40
2023-05-07T10:36:08.929Z,59.50
2023-05-07T10:38:38.078Z,59.40
2023-05-07T10:41:08.949Z,59.40
2023-05-07T10:43:46.941Z,59.40
2023-05-07T10:46:18.654Z,59.30
2023-05-07T10:49:09.199Z,59.30
2023-05-07T10:51:37.927Z,59.10
2023-05-07T10:54:30.210Z,59.20
2023-05-07T10:57:36.554Z,58.60
2023-05-07T11:00:07.003Z,58.30
2023-05-07T11:03:13.080Z,58.50
2023-05-07T11:05:42.013Z,57.70
2023-05-07T11:08:11.582Z,57.80
2023-05-07T11:10:54.922Z,57.40
2023-05-07T11:13:46.510Z,57.40
2023-05-07T11:16:22.443Z,57.10
2023-05-07T11:18:52.228Z,56.90
2023-05-07T11:21:35.690Z,56.70
2023-05-07T11:24:05.154Z,55.70
2023-05-07T11:26:44.541Z,56.10
2023-05-07T11:29:15.850Z,54.80
2023-05-07T11:31:44.486Z,54.10
2023-05-07T11:34:14.047Z,53.40
2023-05-07T11:36:48.569Z,52.80
2023-05-07T11:39:37.000Z,51.90
2023-05-07T11:42:05.511Z,51.10
2023-05-07T11:44:47.009Z,51.40
2023-05-07T11:47:20.274Z,50.70
2023-05-07T11:49:49.977Z,50.70
2023-05-07T11:52:19.837Z,51.00
2023-05-07T11:54:51.906Z,51.00
2023-05-07T11:57:20.959Z,50.90
2023-05-07T11:59:54.598Z,51.00
2023-05-07T12:02:23.098Z,50.90
2023-05-07T12:04:51.906Z,51.20
2023-05-07T12:07:20.948Z,51.10
2023-05-07T12:09:49.845Z,51.10
2023-05-07T12:12:18.426Z,50.90
2023-05-07T12:14:47.999Z,50.80
2023-05-07T12:17:19.342Z,51.00
2023-05-07T12:19:48.063Z,51.00
2023-05-07T12:22:16.777Z,51.10
2023-05-07T12:24:49.038Z,51.10
2023-05-07T12:27:18.641Z,50.90
2023-05-07T12:29:48.268Z,50.90
2023-05-07T12:32:19.566Z,51.00
2023-05-07T12:34:48.369Z,51.00
2023-05-07T12:37:16.669Z,51.10
2023-05-07T12:39:50.192Z,51.20
2023-05-07T12:42:24.454Z,51.10
2023-05-07T12:44:53.234Z,51.30
2023-05-07T12:47:23.164Z,51.40
2023-05-07T12:49:51.706Z,52.20
2023-05-07T12:52:19.997Z,53.50
2023-05-07T12:54:49.904Z,55.00
2023-05-07T12:57:22.720Z,56.10
2023-05-07T12:59:51.033Z,56.40
2023-05-07T13:02:19.631Z,56.90
2023-05-07T13:04:49.175Z,57.80
2023-05-07T13:07:17.477Z,58.90
2023-05-07T13:09:45.849Z,59.50
2023-05-07T13:12:14.302Z,60.40
2023-05-07T13:14:42.728Z,61.50
2023-05-07T13:17:11.035Z,62.60
2023-05-07T13:19:39.608Z,63.00
2023-05-07T13:22:09.494Z,62.90
2023-05-07T13:24:38.114Z,63.60
2023-05-07T13:27:06.645Z,64.20
2023-05-07T13:29:35.223Z,64.80
2023-05-07T13:32:03.606Z,64.90
2023-05-07T13:34:31.892Z,65.10
2023-05-07T13:37:00.241Z,65.30
2023-05-07T13:39:30.057Z,64.00
2023-05-07T13:41:58.438Z,63.50
2023-05-07T13:44:26.713Z,63.20
2023-05-07T13:46:55.096Z,63.30
2023-05-07T13:49:24.135Z,63.70
2023-05-07T13:51:52.492Z,64.40
2023-05-07T13:54:20.763Z,65.50
2023-05-07T13:56:50.605Z,65.10
2023-05-07T13:59:18.780Z,65.20
2023-05-07T14:01:47.012Z,65.80
2023-05-07T14:04:15.506Z,65.90
2023-05-07T14:06:43.804Z,65.90
2023-05-07T14:09:14.167Z,65.60
2023-05-07T14:11:42.648Z,65.30
2023-05-07T14:14:12.820Z,65.50
2023-05-07T14:16:41.190Z,65.60
2023-05-07T14:19:09.421Z,66.00
2023-05-07T14:21:37.626Z,66.30
2023-05-07T14:24:06.376Z,65.90
2023-05-07T14:26:34.966Z,65.60
2023-05-07T14:29:03.352Z,65.30
2023-05-07T14:31:35.816Z,65.30
2023-05-07T14:34:04.191Z,65.20
2023-05-07T14:36:33.027Z,65.00
2023-05-07T14:39:01.386Z,64.90
2023-05-07T14:41:29.701Z,64.80
2023-05-07T14:43:59.751Z,64.60
2023-05-07T14:46:28.263Z,64.80
2023-05-07T14:48:58.635Z,65.10
2023-05-07T14:51:29.050Z,65.40
2023-05-07T14:53:57.426Z,65.80
2023-05-07T14:56:25.752Z,66.50
2023-05-07T14:58:54.062Z,67.00
2023-05-07T15:01:22.895Z,67.10
2023-05-07T15:03:51.585Z,67.30
2023-05-07T15:06:21.294Z,68.20
2023-05-07T15:08:49.900Z,68.80
2023-05-07T15:11:18.359Z,69.50
2023-05-07T15:13:46.615Z,70.50
2023-05-07T15:16:15.205Z,71.10
2023-05-07T15:18:43.763Z,71.30
2023-05-07T15:21:12.189Z,71.10
2023-05-07T15:23:42.257Z,70.60
2023-05-07T15:26:10.645Z,70.40
2023-05-07T15:28:40.453Z,70.20
2023-05-07T15:31:10.285Z,70.10
2023-05-07T15:33:38.564Z,69.80
2023-05-07T15:36:07.720Z,69.60
2023-05-07T15:38:36.332Z,69.20
2023-05-07T15:41:06.187Z,69.10
2023-05-07T15:43:34.557Z,68.90
2023-05-07T15:46:02.914Z,68.60
2023-05-07T15:48:31.462Z,67.70
2023-05-07T15:51:01.096Z,66.50
2023-05-07T15:53:29.391Z,65.50
2023-05-07T15:55:57.643Z,64.90
2023-05-07T15:58:29.632Z,64.40
2023-05-07T16:00:57.926Z,64.20
2023-05-07T16:03:26.891Z,64.20
2023-05-07T16:05:57.928Z,63.90
2023-05-07T16:08:26.228Z,64.00
2023-05-07T16:10:54.507Z,64.20
2023-05-07T16:13:24.781Z,63.90
2023-05-07T16:15:59.430Z,63.50
2023-05-07T16:18:28.185Z,63.20
2023-05-07T16:20:57.963Z,63.30
2023-05-07T16:23:26.273Z,63.00
2023-05-07T16:25:54.856Z,62.80
2023-05-07T16:28:25.462Z,62.80
2023-05-07T16:30:54.005Z,62.30
2023-05-07T16:33:24.055Z,62.00
2023-05-07T16:35:55.808Z,62.10
2023-05-07T16:38:24.189Z,62.10
2023-05-07T16:40:52.451Z,61.50
2023-05-07T16:43:20.645Z,61.80
2023-05-07T16:45:48.938Z,61.50
2023-05-07T16:48:18.618Z,61.50
2023-05-07T16:50:50.478Z,61.70
2023-05-07T16:53:18.749Z,61.60
2023-05-07T16:55:47.140Z,61.80
2023-05-07T16:58:15.584Z,61.90
2023-05-07T17:00:50.658Z,62.20
2023-05-07T17:03:20.060Z,62.10
2023-05-07T17:05:49.987Z,62.20
2023-05-07T17:08:18.425Z,63.00
2023-05-07T17:10:46.765Z,62.30
2023-05-07T17:13:15.216Z,62.40
2023-05-07T17:15:46.391Z,62.50
2023-05-07T17:18:15.129Z,62.60
2023-05-07T17:20:43.438Z,62.90
2023-05-07T17:23:13.323Z,63.20
2023-05-07T17:25:45.598Z,63.40
2023-05-07T17:28:14.159Z,63.40
2023-05-07T17:30:42.561Z,63.30
2023-05-07T17:33:20.788Z,63.30
2023-05-07T17:35:50.088Z,63.60
2023-05-07T17:38:19.805Z,63.80
2023-05-07T17:40:48.748Z,63.80
2023-05-07T17:43:17.539Z,63.80
2023-05-07T17:45:45.800Z,63.90
2023-05-07T17:48:14.097Z,64.10
2023-05-07T17:50:42.819Z,64.40
2023-05-07T17:53:11.226Z,64.60
2023-05-07T17:55:44.726Z,64.90
2023-05-07T17:58:13.670Z,65.40
2023-05-07T18:00:41.900Z,65.70
2023-05-07T18:03:10.340Z,65.90
2023-05-07T18:05:39.951Z,66.20
2023-05-07T18:08:08.778Z,66.70
2023-05-07T18:10:37.685Z,67.60
2023-05-07T18:13:07.746Z,67.10
2023-05-07T18:15:36.450Z,67.40
2023-05-07T18:18:05.888Z,67.70
2023-05-07T18:20:37.570Z,68.00
2023-05-07T18:23:05.878Z,68.40
2023-05-07T18:25:34.372Z,68.90
2023-05-07T18:28:02.651Z,69.10
2023-05-07T18:30:32.365Z,69.40
2023-05-07T18:33:00.942Z,69.60
2023-05-07T18:35:29.574Z,69.80
2023-05-07T18:37:57.888Z,70.10
2023-05-07T18:40:26.545Z,70.30
2023-05-07T18:42:55.866Z,70.50
2023-05-07T18:45:24.267Z,70.60
2023-05-07T18:47:54.169Z,71.40
2023-05-07T18:50:22.488Z,71.10
2023-05-07T18:52:51.023Z,71.10
2023-05-07T18:55:21.781Z,71.90
2023-05-07T18:57:50.244Z,71.30
2023-05-07T19:00:18.972Z,71.40
2023-05-07T19:02:47.218Z,71.50
2023-05-07T19:05:18.898Z,71.60
2023-05-07T19:07:47.965Z,71.90
2023-05-07T19:10:17.296Z,72.10
2023-05-07T19:12:46.528Z,72.20
2023-05-07T19:15:14.805Z,72.30
2023-05-07T19:17:43.404Z,72.60
2023-05-07T19:20:12.594Z,72.80
2023-05-07T19:22:43.482Z,73.10
2023-05-07T19:25:12.278Z,73.30
2023-05-07T19:27:40.699Z,73.40
2023-05-07T19:30:10.732Z,73.60
2023-05-07T19:32:39.984Z,73.70
2023-05-07T19:35:09.162Z,73.80
2023-05-07T19:37:38.243Z,74.00
2023-05-07T19:40:09.487Z,74.20
2023-05-07T19:42:37.966Z,74.60
2023-05-07T19:45:07.125Z,74.80
2023-05-07T19:47:35.701Z,75.00
2023-05-07T19:50:04.377Z,75.20
2023-05-07T19:52:32.592Z,75.20
2023-05-07T19:55:00.922Z,75.50
2023-05-07T19:57:30.624Z,75.80
2023-05-07T19:59:59.364Z,76.20
2023-05-07T20:02:27.732Z,76.30
2023-05-07T20:04:56.588Z,76.70
2023-05-07T20:07:25.295Z,76.90
2023-05-07T20:09:53.554Z,77.10
2023-05-07T20:12:22.177Z,77.40
2023-05-07T20:14:51.828Z,77.70
2023-05-07T20:17:20.246Z,78.00
2023-05-07T20:19:49.038Z,78.20
2023-05-07T20:22:17.328Z,78.30
2023-05-07T20:24:45.572Z,78.40
2023-05-07T20:27:13.884Z,78.60
2023-05-07T20:29:42.311Z,78.80
2023-05-07T20:32:12.112Z,78.90
2023-05-07T20:34:40.681Z,78.80
2023-05-07T20:37:11.792Z,79.00
2023-05-07T20:39:40.135Z,79.20
2023-05-07T20:42:08.474Z,79.10
2023-05-07T20:44:37.024Z,79.20
2023-05-07T20:47:05.770Z,79.30
2023-05-07T20:49:35.862Z,79.40
2023-05-07T20:52:04.214Z,79.50
2023-05-07T20:54:32.685Z,79.40
2023-05-07T20:57:01.242Z,79.30
2023-05-07T20:59:29.623Z,79.20
2023-05-07T21:01:57.847Z,79.30
2023-05-07T21:04:26.162Z,79.20
2023-05-07T21:06:55.873Z,79.20
2023-05-07T21:09:25.510Z,79.30
2023-05-07T21:11:54.495Z,79.40
2023-05-07T21:14:23.040Z,79.50
2023-05-07T21:16:51.289Z,79.50
2023-05-07T21:19:19.855Z,79.40
2023-05-07T21:21:48.342Z,79.40
2023-05-07T21:24:17.945Z,79.70
2023-05-07T21:26:46.549Z,79.70
2023-05-07T21:29:14.820Z,79.80
2023-05-07T21:31:43.141Z,79.80
2023-05-07T21:34:11.464Z,79.80
2023-05-07T21:36:39.826Z,79.80
2023-05-07T21:39:08.850Z,79.70
2023-05-07T21:41:38.989Z,79.70
2023-05-07T21:44:07.473Z,79.80
2023-05-07T21:46:35.874Z,79.90
2023-05-07T21:49:04.668Z,80.20
2023-05-07T21:51:35.752Z,80.30
2023-05-07T21:54:03.980Z,80.40
2023-05-07T21:56:32.432Z,80.50
2023-05-07T21:59:02.104Z,80.60
2023-05-07T22:01:30.396Z,80.80
2023-05-07T22:03:58.667Z,80.90
2023-05-07T22:06:27.314Z,80.90
2023-05-07T22:08:55.636Z,81.10
2023-05-07T22:11:23.935Z,81.20
2023-05-07T22:13:52.267Z,81.40
2023-05-07T22:16:21.931Z,81.50
2023-05-07T22:18:50.318Z,81.70
2023-05-07T22:21:18.677Z,82.00
2023-05-07T22:23:46.958Z,82.10
2023-05-07T22:26:15.511Z,82.30
2023-05-07T22:28:44.150Z,82.50
2023-05-07T22:31:12.526Z,82.60
2023-05-07T22:33:42.159Z,82.80
2023-05-07T22:36:10.783Z,83.00
2023-05-07T22:38:39.090Z,83.10
2023-05-07T22:41:07.349Z,83.10
2023-05-07T22:43:35.820Z,83.40
2023-05-07T22:46:04.341Z,83.60
2023-05-07T22:48:34.051Z,83.80
2023-05-07T22:51:04.144Z,84.00
2023-05-07T22:53:32.380Z,84.10
2023-05-07T22:56:05.139Z,84.30
2023-05-07T22:58:33.382Z,84.60
2023-05-07T23:01:02.430Z,84.60
2023-05-07T23:03:30.979Z,84.70
2023-05-07T23:05:59.144Z,85.40
2023-05-07T23:08:28.893Z,84.90
2023-05-07T23:10:57.072Z,85.10
2023-05-07T23:13:25.495Z,85.30
2023-05-07T23:15:53.957Z,85.50
2023-05-07T23:18:22.508Z,85.60
2023-05-07T23:20:50.798Z,85.80
2023-05-07T23:23:19.060Z,86.00
2023-05-07T23:25:48.934Z,86.00
2023-05-07T23:28:17.166Z,86.00
2023-05-07T23:30:45.749Z,85.90
2023-05-07T23:33:14.043Z,85.80
2023-05-07T23:35:42.534Z,85.80
2023-05-07T23:38:11.083Z,86.10
2023-05-07T23:40:39.630Z,86.50
2023-05-07T23:43:09.622Z,86.60
2023-05-07T23:45:37.796Z,86.80
2023-05-07T23:48:06.589Z,86.80
2023-05-07T23:50:35.167Z,86.90
2023-05-07T23:53:03.560Z,87.00
2023-05-07T23:55:32.046Z,87.10
2023-05-07T23:58:00.356Z,87.30
